Time;durP1;ratioP1;P1;durP2;ratioP2;P2;SDS_P1;SDS_P2;PMS_P1;PMS_P2;Temp;Humidity;BMP_temperature;BMP_pressure;BME280_temperature;BME280_humidity;BME280_pressure;Samples;Min_cycle;Max_cycle;Signal;HPM_P1;HPM_P2
2023/07/17 00:01:35;;;;;;;;;;;17.30;94.90;;;;;;5073843;28;19913;-85
2023/07/17 00:04:01;;;;;;;;;;;17.20;95.00;;;;;;5059355;28;19916;-84
2023/07/17 00:06:27;;;;;;;;;;;17.20;95.00;;;;;;5048886;28;19908;-84
2023/07/17 00:08:52;;;;;;;;;;;17.20;95.00;;;;;;5054038;28;19904;-85
2023/07/17 00:11:18;;;;;;;;;;;17.20;95.10;;;;;;5070267;28;19913;-85
2023/07/17 00:13:44;;;;;;;;;;;17.20;95.20;;;;;;5040077;28;19979;-86
2023/07/17 00:16:09;;;;;;;;;;;17.20;95.30;;;;;;5038328;28;19909;-83
2023/07/17 00:18:35;;;;;;;;;;;17.10;95.40;;;;;;5053842;28;20378;-84
2023/07/17 00:21:02;;;;;;;;;;;17.10;95.50;;;;;;5054391;28;20397;-85
2023/07/17 00:23:27;;;;;;;;;;;17.10;95.60;;;;;;5053330;28;19947;-84
2023/07/17 00:25:53;;;;;;;;;;;17.10;95.60;;;;;;5053453;28;19932;-84
2023/07/17 00:28:19;;;;;;;;;;;17.10;95.80;;;;;;5039978;28;20363;-84
2023/07/17 00:30:45;;;;;;;;;;;17.00;95.80;;;;;;5060271;28;19913;-84
2023/07/17 00:33:11;;;;;;;;;;;17.00;95.90;;;;;;5048285;28;19908;-84
2023/07/17 00:35:37;;;;;;;;;;;17.10;95.90;;;;;;5056445;28;19915;-84
2023/07/17 00:38:02;;;;;;;;;;;17.00;95.80;;;;;;5037704;28;19931;-84
2023/07/17 00:40:28;;;;;;;;;;;17.10;95.90;;;;;;5060449;28;19964;-84
2023/07/17 00:42:57;;;;;;;;;;;17.10;95.90;;;;;;5056918;28;19913;-84
2023/07/17 00:45:24;;;;;;;;;;;17.10;95.90;;;;;;5037597;28;20294;-86
2023/07/17 00:47:50;;;;;;;;;;;17.10;95.80;;;;;;5047360;28;19972;-84
2023/07/17 00:50:15;;;;;;;;;;;17.10;95.90;;;;;;5052486;28;19954;-84
2023/07/17 00:52:41;;;;;;;;;;;17.00;95.90;;;;;;5055643;28;19909;-82
2023/07/17 00:55:08;;;;;;;;;;;17.00;96.00;;;;;;5056764;28;19908;-84
2023/07/17 00:57:34;;;;;;;;;;;17.00;96.10;;;;;;5052653;28;19924;-84
2023/07/17 01:00:00;;;;;;;;;;;17.00;96.10;;;;;;5053213;28;19920;-86
2023/07/17 01:02:26;;;;;;;;;;;16.90;96.10;;;;;;5054489;28;19916;-84
2023/07/17 01:04:51;;;;;;;;;;;16.90;96.10;;;;;;5063361;28;19999;-84
2023/07/17 01:07:17;;;;;;;;;;;16.90;96.20;;;;;;5066788;28;19908;-84
2023/07/17 01:09:43;;;;;;;;;;;16.90;96.40;;;;;;5060288;28;20043;-84
2023/07/17 01:12:09;;;;;;;;;;;16.90;96.50;;;;;;5069601;28;20396;-86
2023/07/17 01:14:35;;;;;;;;;;;16.90;96.40;;;;;;5070136;28;20015;-84
2023/07/17 01:17:00;;;;;;;;;;;16.90;96.50;;;;;;5049462;28;19916;-84
2023/07/17 01:19:26;;;;;;;;;;;16.80;96.50;;;;;;5060967;28;19909;-84
2023/07/17 01:21:56;;;;;;;;;;;16.90;96.50;;;;;;5056084;28;19916;-85
2023/07/17 01:24:22;;;;;;;;;;;16.80;96.50;;;;;;5042905;28;19955;-84
2023/07/17 01:26:47;;;;;;;;;;;16.80;96.60;;;;;;5051040;28;19909;-83
2023/07/17 01:29:13;;;;;;;;;;;16.80;96.70;;;;;;5058166;28;19942;-84
2023/07/17 01:31:42;;;;;;;;;;;16.80;96.80;;;;;;5043559;28;20370;-85
2023/07/17 01:34:08;;;;;;;;;;;16.80;96.70;;;;;;5064484;28;20007;-85
2023/07/17 01:36:34;;;;;;;;;;;16.80;96.70;;;;;;5053043;28;19916;-86
2023/07/17 01:38:59;;;;;;;;;;;16.80;96.70;;;;;;5055361;28;20419;-86
2023/07/17 01:41:25;;;;;;;;;;;16.80;96.70;;;;;;5038269;28;19971;-84
2023/07/17 01:43:51;;;;;;;;;;;16.80;96.80;;;;;;5060563;28;19909;-86
2023/07/17 01:46:17;;;;;;;;;;;16.80;96.80;;;;;;5059738;28;19964;-83
2023/07/17 01:48:42;;;;;;;;;;;16.80;96.80;;;;;;5055235;28;19939;-84
2023/07/17 01:51:08;;;;;;;;;;;16.90;96.90;;;;;;5039212;28;19909;-83
2023/07/17 01:53:34;;;;;;;;;;;16.90;96.90;;;;;;5038028;28;20285;-85
2023/07/17 01:56:02;;;;;;;;;;;16.90;97.00;;;;;;5038387;28;19956;-85
2023/07/17 01:58:28;;;;;;;;;;;16.90;97.00;;;;;;5057625;28;20369;-83
2023/07/17 02:00:55;;;;;;;;;;;17.00;96.90;;;;;;5048938;28;19924;-86
2023/07/17 02:03:21;;;;;;;;;;;17.00;97.00;;;;;;5059370;28;19967;-84
2023/07/17 02:05:46;;;;;;;;;;;17.00;97.10;;;;;;5066335;28;19913;-83
2023/07/17 02:08:12;;;;;;;;;;;17.10;97.10;;;;;;5047601;28;19952;-84
2023/07/17 02:10:49;;;;;;;;;;;17.10;97.00;;;;;;5061928;28;19939;-84
2023/07/17 02:13:14;;;;;;;;;;;17.20;97.00;;;;;;5056015;28;19935;-85
2023/07/17 02:15:40;;;;;;;;;;;17.20;97.00;;;;;;5055095;28;20445;-82
2023/07/17 02:18:06;;;;;;;;;;;17.30;97.00;;;;;;5044734;28;19908;-83
2023/07/17 02:20:33;;;;;;;;;;;17.30;97.00;;;;;;5061021;28;19979;-84
2023/07/17 02:22:58;;;;;;;;;;;17.40;97.00;;;;;;5065027;28;19919;-83
2023/07/17 02:25:24;;;;;;;;;;;17.50;97.00;;;;;;5056222;28;20003;-83
2023/07/17 02:27:50;;;;;;;;;;;17.50;97.20;;;;;;5052456;28;20015;-82
2023/07/17 02:30:15;;;;;;;;;;;17.50;96.90;;;;;;5035277;28;19995;-83
2023/07/17 02:32:41;;;;;;;;;;;17.60;96.90;;;;;;5057620;28;19932;-85
2023/07/17 02:35:08;;;;;;;;;;;17.60;96.90;;;;;;5044917;28;19935;-86
2023/07/17 02:37:34;;;;;;;;;;;17.60;96.80;;;;;;5058525;28;19948;-85
2023/07/17 02:40:00;;;;;;;;;;;17.70;96.80;;;;;;5057186;28;19971;-85
2023/07/17 02:42:26;;;;;;;;;;;17.70;96.80;;;;;;5056921;28;20266;-85
2023/07/17 02:44:52;;;;;;;;;;;17.80;96.80;;;;;;5061672;28;19892;-86
2023/07/17 02:47:17;;;;;;;;;;;17.80;96.80;;;;;;5055285;28;19928;-86
2023/07/17 02:49:43;;;;;;;;;;;17.90;96.80;;;;;;5040054;28;20326;-83
2023/07/17 02:52:09;;;;;;;;;;;17.90;96.70;;;;;;5042332;28;19951;-86
2023/07/17 02:54:38;;;;;;;;;;;18.00;96.60;;;;;;5044450;28;19910;-82
2023/07/17 02:57:04;;;;;;;;;;;18.10;96.60;;;;;;5054308;28;19917;-84
2023/07/17 02:59:30;;;;;;;;;;;18.10;96.50;;;;;;5053682;28;19919;-83
2023/07/17 03:01:56;;;;;;;;;;;18.20;96.50;;;;;;5045896;28;19913;-84
2023/07/17 03:04:22;;;;;;;;;;;18.20;96.30;;;;;;5045939;28;19909;-85
2023/07/17 03:06:48;;;;;;;;;;;18.30;96.30;;;;;;5061931;28;20291;-84
2023/07/17 03:09:13;;;;;;;;;;;18.20;96.20;;;;;;5057916;28;19912;-84
2023/07/17 03:11:39;;;;;;;;;;;18.10;96.10;;;;;;5039013;28;19983;-83
2023/07/17 03:14:05;;;;;;;;;;;18.10;96.10;;;;;;5038974;28;19940;-84
2023/07/17 03:16:31;;;;;;;;;;;18.00;96.20;;;;;;5036602;28;20344;-83
2023/07/17 03:18:57;;;;;;;;;;;18.00;96.30;;;;;;5036212;28;19915;-84
2023/07/17 03:21:22;;;;;;;;;;;18.00;96.40;;;;;;5053891;28;20122;-84
2023/07/17 03:23:48;;;;;;;;;;;18.10;96.40;;;;;;5038770;28;19909;-84
2023/07/17 03:26:14;;;;;;;;;;;18.20;96.40;;;;;;5050883;28;19916;-85
2023/07/17 03:28:39;;;;;;;;;;;18.30;96.40;;;;;;5042807;28;19939;-83
2023/07/17 03:31:07;;;;;;;;;;;18.50;96.30;;;;;;5035895;28;19918;-84
2023/07/17 03:33:33;;;;;;;;;;;18.60;96.00;;;;;;5063187;28;19909;-81
2023/07/17 03:35:59;;;;;;;;;;;18.70;96.00;;;;;;5060803;28;20467;-85
2023/07/17 03:38:24;;;;;;;;;;;18.80;95.50;;;;;;5061736;28;19955;-83
2023/07/17 03:40:50;;;;;;;;;;;18.90;95.40;;;;;;5049460;28;20429;-85
2023/07/17 03:43:16;;;;;;;;;;;19.00;95.30;;;;;;5036560;28;19912;-85
2023/07/17 03:45:41;;;;;;;;;;;19.00;95.10;;;;;;5064526;28;19920;-83
2023/07/17 03:48:07;;;;;;;;;;;19.20;95.00;;;;;;5061471;28;19921;-83
2023/07/17 03:50:33;;;;;;;;;;;19.30;94.90;;;;;;5045257;28;20043;-86
2023/07/17 03:52:58;;;;;;;;;;;19.40;94.80;;;;;;5039653;28;19919;-86
2023/07/17 03:55:24;;;;;;;;;;;19.40;94.50;;;;;;5062364;28;19909;-84
2023/07/17 03:57:50;;;;;;;;;;;19.50;94.40;;;;;;5051929;28;20525;-85
2023/07/17 04:00:16;;;;;;;;;;;19.60;94.10;;;;;;5067487;28;19917;-84
2023/07/17 04:02:42;;;;;;;;;;;19.70;93.60;;;;;;5047777;28;19909;-84
2023/07/17 04:05:08;;;;;;;;;;;19.80;93.50;;;;;;5065962;28;19984;-84
2023/07/17 04:07:33;;;;;;;;;;;19.80;93.40;;;;;;5050675;28;20427;-86
2023/07/17 04:09:59;;;;;;;;;;;19.90;93.30;;;;;;5041621;28;19917;-86
2023/07/17 04:12:25;;;;;;;;;;;20.00;93.20;;;;;;5041412;28;19913;-84
2023/07/17 04:14:51;;;;;;;;;;;20.00;93.00;;;;;;5062703;28;19909;-85
2023/07/17 04:17:16;;;;;;;;;;;20.10;92.90;;;;;;5052891;28;20370;-86
2023/07/17 04:19:42;;;;;;;;;;;20.10;92.80;;;;;;5038525;28;19924;-84
2023/07/17 04:22:08;;;;;;;;;;;20.20;92.70;;;;;;5055350;28;20332;-87
2023/07/17 04:24:34;;;;;;;;;;;20.30;92.70;;;;;;5056941;28;19912;-86
2023/07/17 04:27:00;;;;;;;;;;;20.40;92.30;;;;;;5050718;28;19916;-85
2023/07/17 04:29:25;;;;;;;;;;;20.50;92.10;;;;;;5053586;28;19913;-85
2023/07/17 04:31:51;;;;;;;;;;;20.50;91.90;;;;;;5057031;28;19909;-85
2023/07/17 04:34:18;;;;;;;;;;;20.60;91.70;;;;;;5043213;28;19909;-84
2023/07/17 04:36:44;;;;;;;;;;;20.70;91.60;;;;;;5041416;28;19909;-85
2023/07/17 04:39:09;;;;;;;;;;;20.70;91.30;;;;;;5056866;28;19917;-85
2023/07/17 04:41:35;;;;;;;;;;;20.80;91.10;;;;;;5062146;28;20336;-83
2023/07/17 04:44:01;;;;;;;;;;;20.80;90.80;;;;;;5042052;28;19909;-82
2023/07/17 04:46:27;;;;;;;;;;;20.90;90.50;;;;;;5039493;28;19913;-82
2023/07/17 04:48:53;;;;;;;;;;;20.90;90.40;;;;;;5037139;28;19916;-83
2023/07/17 04:51:20;;;;;;;;;;;21.00;90.30;;;;;;5037479;28;19918;-87
2023/07/17 04:53:46;;;;;;;;;;;21.10;90.20;;;;;;5039651;28;19913;-87
2023/07/17 04:56:12;;;;;;;;;;;21.10;90.10;;;;;;5040653;28;19909;-87
2023/07/17 04:58:38;;;;;;;;;;;21.20;89.70;;;;;;5044564;28;19909;-87
2023/07/17 05:01:06;;;;;;;;;;;21.30;89.30;;;;;;5044147;28;19917;-82
2023/07/17 05:03:32;;;;;;;;;;;21.40;89.10;;;;;;5042685;28;19913;-83
2023/07/17 05:05:58;;;;;;;;;;;21.60;89.10;;;;;;5042988;28;19909;-83
2023/07/17 05:08:25;;;;;;;;;;;21.60;89.30;;;;;;5036281;28;19935;-84
2023/07/17 05:10:54;;;;;;;;;;;21.90;89.40;;;;;;5037494;28;19909;-85
2023/07/17 05:13:20;;;;;;;;;;;22.40;89.80;;;;;;5042924;28;19909;-85
2023/07/17 05:15:46;;;;;;;;;;;23.30;87.10;;;;;;5042171;28;19921;-88
2023/07/17 05:18:12;;;;;;;;;;;24.30;85.80;;;;;;5049025;28;19909;-86
2023/07/17 05:20:37;;;;;;;;;;;25.40;83.20;;;;;;5071190;28;19988;-86
2023/07/17 05:23:03;;;;;;;;;;;26.50;80.70;;;;;;5043065;28;19910;-88
2023/07/17 05:25:29;;;;;;;;;;;27.60;77.60;;;;;;5034182;28;19964;-87
2023/07/17 05:27:54;;;;;;;;;;;28.00;73.90;;;;;;5039691;28;19909;-88
2023/07/17 05:30:20;;;;;;;;;;;28.40;71.00;;;;;;5038162;28;19915;-88
2023/07/17 05:32:46;;;;;;;;;;;28.60;69.50;;;;;;5038080;28;19963;-86
2023/07/17 05:35:12;;;;;;;;;;;29.10;67.80;;;;;;5037727;28;19951;-85
2023/07/17 05:37:38;;;;;;;;;;;;;;;;;;5035562;28;19909;-84
2023/07/17 05:40:05;;;;;;;;;;;30.00;64.10;;;;;;5056010;28;19925;-89
2023/07/17 05:42:30;;;;;;;;;;;30.40;61.10;;;;;;5047927;28;19913;-90
2023/07/17 05:44:56;;;;;;;;;;;30.50;61.40;;;;;;5055015;28;19932;-89
2023/07/17 05:47:25;;;;;;;;;;;31.10;61.10;;;;;;5052621;28;19909;-90
2023/07/17 05:49:51;;;;;;;;;;;31.60;60.60;;;;;;5075913;28;19893;-90
2023/07/17 05:52:17;;;;;;;;;;;32.00;57.40;;;;;;5054497;28;19948;-87
2023/07/17 05:54:42;;;;;;;;;;;32.30;57.00;;;;;;5064510;28;19909;-89
2023/07/17 05:57:08;;;;;;;;;;;32.70;56.30;;;;;;5063255;28;19909;-86
2023/07/17 05:59:34;;;;;;;;;;;32.80;54.70;;;;;;5045754;28;19936;-88
2023/07/17 06:02:00;;;;;;;;;;;33.10;53.90;;;;;;5051900;28;20030;-90
2023/07/17 06:04:25;;;;;;;;;;;33.30;53.20;;;;;;5040809;28;19909;-90
2023/07/17 06:06:51;;;;;;;;;;;33.40;51.40;;;;;;5051230;28;19909;-87
2023/07/17 06:09:17;;;;;;;;;;;33.40;51.50;;;;;;5042314;28;19919;-89
2023/07/17 06:11:43;;;;;;;;;;;33.70;51.60;;;;;;5040230;28;19917;-82
2023/07/17 06:14:08;;;;;;;;;;;34.60;51.10;;;;;;5038447;28;19966;-89
2023/07/17 06:16:34;;;;;;;;;;;35.40;49.50;;;;;;5051369;28;19917;-82
2023/07/17 06:19:00;;;;;;;;;;;36.00;49.10;;;;;;5041785;28;20486;-83
2023/07/17 06:21:26;;;;;;;;;;;36.80;48.70;;;;;;5053088;28;20356;-83
2023/07/17 06:23:51;;;;;;;;;;;37.40;46.60;;;;;;5058038;28;19916;-82
2023/07/17 06:26:17;;;;;;;;;;;37.80;46.60;;;;;;5054479;28;19917;-87
2023/07/17 06:28:43;;;;;;;;;;;37.70;43.00;;;;;;5065640;28;19932;-88
2023/07/17 06:31:09;;;;;;;;;;;37.40;42.90;;;;;;5066701;28;19923;-86
2023/07/17 06:33:35;;;;;;;;;;;37.30;42.90;;;;;;5046010;28;19909;-85
2023/07/17 06:36:02;;;;;;;;;;;37.60;43.60;;;;;;5059225;28;19909;-86
2023/07/17 06:38:28;;;;;;;;;;;;;;;;;;5040849;28;19913;-84
2023/07/17 06:40:54;;;;;;;;;;;38.20;43.40;;;;;;5056763;28;19924;-85
2023/07/17 06:43:21;;;;;;;;;;;39.50;43.10;;;;;;5056731;28;20297;-83
2023/07/17 06:45:47;;;;;;;;;;;40.20;42.00;;;;;;5037385;28;19909;-84
2023/07/17 06:48:13;;;;;;;;;;;;;;;;;;5054902;28;19927;-85
2023/07/17 06:50:38;;;;;;;;;;;39.90;38.80;;;;;;5039354;28;19916;-85
2023/07/17 06:53:04;;;;;;;;;;;39.50;39.90;;;;;;5056059;28;19935;-85
2023/07/17 06:55:30;;;;;;;;;;;39.00;39.40;;;;;;5056163;28;19909;-84
2023/07/17 06:57:56;;;;;;;;;;;39.40;39.70;;;;;;5051559;28;19937;-85
2023/07/17 07:00:21;;;;;;;;;;;39.90;38.50;;;;;;5044924;28;19921;-83
2023/07/17 07:02:47;;;;;;;;;;;40.10;39.40;;;;;;5033393;28;19953;-84
2023/07/17 07:05:13;;;;;;;;;;;40.40;38.60;;;;;;5057885;28;20004;-86
2023/07/17 07:07:38;;;;;;;;;;;40.60;36.80;;;;;;5062215;28;19913;-86
2023/07/17 07:10:05;;;;;;;;;;;40.20;36.80;;;;;;5040324;28;19916;-86
2023/07/17 07:12:30;;;;;;;;;;;39.90;37.30;;;;;;5041931;28;19909;-88
2023/07/17 07:14:56;;;;;;;;;;;40.50;36.60;;;;;;5032682;28;19931;-86
2023/07/17 07:17:22;;;;;;;;;;;40.10;37.50;;;;;;5056022;28;19962;-86
2023/07/17 07:19:57;;;;;;;;;;;40.00;35.90;;;;;;5050492;28;20341;-95
2023/07/17 07:22:41;;;;;;;;;;;40.00;36.10;;;;;;5021267;28;19952;-94
2023/07/17 07:25:11;;;;;;;;;;;40.40;36.20;;;;;;5037310;28;20000;-95
2023/07/17 07:27:37;;;;;;;;;;;40.40;36.20;;;;;;5037623;28;20008;-87
2023/07/17 07:30:04;;;;;;;;;;;40.70;36.60;;;;;;5019502;28;20408;-87
2023/07/17 07:32:30;;;;;;;;;;;;;;;;;;5006875;28;19913;-86
2023/07/17 07:34:59;;;;;;;;;;;;;;;;;;5020189;28;20306;-87
2023/07/17 07:37:25;;;;;;;;;;;;;;;;;;5016409;28;19913;-89
2023/07/17 07:39:51;;;;;;;;;;;;;;;;;;5023184;28;19913;-88
2023/07/17 07:42:17;;;;;;;;;;;41.60;37.00;;;;;;5033419;28;19909;-89
2023/07/17 07:44:43;;;;;;;;;;;;;;;;;;5037635;28;19961;-87
2023/07/17 07:47:09;;;;;;;;;;;;;;;;;;5046458;28;19920;-84
2023/07/17 07:49:35;;;;;;;;;;;;;;;;;;5035724;28;19913;-90
2023/07/17 07:52:00;;;;;;;;;;;42.30;36.00;;;;;;5013745;28;20095;-88
2023/07/17 07:54:26;;;;;;;;;;;43.10;33.50;;;;;;5011049;28;20389;-87
2023/07/17 07:56:52;;;;;;;;;;;;;;;;;;5030234;28;19910;-88
2023/07/17 07:59:18;;;;;;;;;;;;;;;;;;5016015;28;19913;-86
2023/07/17 08:01:44;;;;;;;;;;;;;;;;;;5036622;28;20050;-90
2023/07/17 08:04:10;;;;;;;;;;;;;;;;;;5017362;28;19909;-88
2023/07/17 08:06:38;;;;;;;;;;;;;;;;;;5034951;28;19916;-90
2023/07/17 08:09:05;;;;;;;;;;;;;;;;;;5040376;28;19943;-89
2023/07/17 08:11:31;;;;;;;;;;;;;;;;;;5055418;28;19963;-87
2023/07/17 08:13:57;;;;;;;;;;;;;;;;;;5055381;28;20374;-89
2023/07/17 08:16:23;;;;;;;;;;;;;;;;;;5037845;28;19909;-88
2023/07/17 08:18:51;;;;;;;;;;;;;;;;;;5035834;28;20341;-88
2023/07/17 08:21:17;;;;;;;;;;;;;;;;;;5040879;28;19928;-88
2023/07/17 08:23:43;;;;;;;;;;;;;;;;;;5061048;28;19909;-87
2023/07/17 08:26:10;;;;;;;;;;;;;;;;;;5060453;28;19919;-86
2023/07/17 08:28:36;;;;;;;;;;;;;;;;;;5066847;28;19917;-87
2023/07/17 08:31:04;;;;;;;;;;;;;;;;;;5046953;28;19917;-89
2023/07/17 08:33:30;;;;;;;;;;;;;;;;;;5047645;28;19920;-86
2023/07/17 08:35:56;;;;;;;;;;;;;;;;;;5040398;28;19948;-87
2023/07/17 08:38:22;;;;;;;;;;;;;;;;;;5058923;28;19924;-85
2023/07/17 08:40:51;;;;;;;;;;;;;;;;;;5039531;28;19921;-86
2023/07/17 08:43:27;;;;;;;;;;;;;;;;;;;;;
2023/07/17 08:45:55;;;;;;;;;;;;;;;;;;5067339;28;19960;-89
2023/07/17 08:48:21;;;;;;;;;;;;;;;;;;5052795;28;19925;-90
2023/07/17 08:50:53;;;;;;;;;;;;;;;;;;5054459;28;19913;-91
2023/07/17 08:53:37;;;;;;;;;;;;;;;;;;5045693;28;19940;-91
2023/07/17 08:56:14;;;;;;;;;;;;;;;;;;5042620;28;19901;-89
2023/07/17 08:58:49;;;;;;;;;;;;;;;;;;5057362;28;19917;-92
2023/07/17 09:01:19;;;;;;;;;;;;;;;;;;5044184;28;19936;-87
2023/07/17 09:03:48;;;;;;;;;;;;;;;;;;5049206;28;19936;-90
2023/07/17 09:06:14;;;;;;;;;;;;;;;;;;5029381;28;20283;-87
2023/07/17 09:08:40;;;;;;;;;;;;;;;;;;5038413;28;19910;-87
2023/07/17 09:11:06;;;;;;;;;;;;;;;;;;5037270;28;19909;-89
2023/07/17 09:13:36;;;;;;;;;;;43.30;34.60;;;;;;5034082;28;19918;-85
2023/07/17 09:16:11;;;;;;;;;;;43.70;31.30;;;;;;5038322;28;19933;-92
2023/07/17 09:18:36;;;;;;;;;;;43.50;31.30;;;;;;5057680;28;19964;-89
2023/07/17 09:21:06;;;;;;;;;;;;;;;;;;5040628;28;19918;-92
2023/07/17 09:23:35;;;;;;;;;;;;;;;;;;5043885;28;19914;-92
2023/07/17 09:26:20;;;;;;;;;;;;;;;;;;5042471;28;19898;-92
2023/07/17 09:28:55;;;;;;;;;;;;;;;;;;5049361;28;20362;-88
2023/07/17 09:31:25;;;;;;;;;;;44.40;31.60;;;;;;5041641;28;19916;-88
2023/07/17 09:33:50;;;;;;;;;;;;;;;;;;5047252;28;19927;-86
2023/07/17 09:36:16;;;;;;;;;;;46.20;30.50;;;;;;5050302;28;19944;-89
2023/07/17 09:38:42;;;;;;;;;;;47.00;30.80;;;;;;5057619;28;19939;-89
2023/07/17 09:41:19;;;;;;;;;;;46.90;29.80;;;;;;5056704;28;19921;-89
2023/07/17 09:44:04;;;;;;;;;;;46.10;29.70;;;;;;5047602;28;19909;-87
2023/07/17 09:46:34;;;;;;;;;;;45.80;30.30;;;;;;5051573;28;19948;-90
2023/07/17 09:49:01;;;;;;;;;;;46.10;30.50;;;;;;5048921;28;19914;-90
2023/07/17 09:51:27;;;;;;;;;;;45.90;29.80;;;;;;5042300;28;20012;-86
2023/07/17 09:53:53;;;;;;;;;;;44.70;29.70;;;;;;5037869;28;20327;-91
2023/07/17 09:56:20;;;;;;;;;;;44.00;30.20;;;;;;5048578;28;19913;-91
2023/07/17 09:58:47;;;;;;;;;;;43.50;30.20;;;;;;5043852;28;20280;-86
2023/07/17 10:01:17;;;;;;;;;;;43.10;30.50;;;;;;5045493;28;19932;-86
2023/07/17 10:03:55;;;;;;;;;;;42.90;30.50;;;;;;5043311;28;19977;-86
2023/07/17 10:06:23;;;;;;;;;;;42.70;31.10;;;;;;5048427;28;20378;-88
2023/07/17 10:08:50;;;;;;;;;;;43.10;31.20;;;;;;5042131;28;19917;-88
2023/07/17 10:11:16;;;;;;;;;;;43.20;30.70;;;;;;5046970;28;19917;-90
2023/07/17 10:13:44;;;;;;;;;;;43.40;30.80;;;;;;5057345;28;19960;-84
2023/07/17 10:16:13;;;;;;;;;;;43.60;30.50;;;;;;5065639;28;20062;-93
2023/07/17 10:18:50;;;;;;;;;;;43.80;30.70;;;;;;5039458;28;20008;-91
2023/07/17 10:21:18;;;;;;;;;;;44.00;30.50;;;;;;5042176;28;20012;-88
2023/07/17 10:23:45;;;;;;;;;;;44.10;30.10;;;;;;5033222;28;19916;-90
2023/07/17 10:26:16;;;;;;;;;;;44.30;30.50;;;;;;5035122;28;19913;-89
2023/07/17 10:28:43;;;;;;;;;;;44.70;30.30;;;;;;5044018;28;19909;-89
2023/07/17 10:31:23;;;;;;;;;;;44.60;30.40;;;;;;5020197;28;19921;-86
2023/07/17 10:33:50;;;;;;;;;;;44.40;30.40;;;;;;5044481;28;19940;-86
2023/07/17 10:36:16;;;;;;;;;;;43.10;29.90;;;;;;5038580;28;20275;-90
2023/07/17 10:38:48;;;;;;;;;;;41.10;30.20;;;;;;5041206;28;19909;-82
2023/07/17 10:41:13;;;;;;;;;;;38.60;31.40;;;;;;5052467;28;19943;-87
2023/07/17 10:43:58;;;;;;;;;;;36.30;32.90;;;;;;5054134;28;19917;-87
2023/07/17 10:46:28;;;;;;;;;;;34.70;34.70;;;;;;5052604;28;20015;-87
2023/07/17 10:49:04;;;;;;;;;;;33.10;35.20;;;;;;5063818;28;19915;-87
2023/07/17 10:51:29;;;;;;;;;;;32.50;36.20;;;;;;5040626;28;19962;-86
2023/07/17 10:53:56;;;;;;;;;;;31.90;38.10;;;;;;5060657;28;19913;-89
2023/07/17 10:56:22;;;;;;;;;;;31.30;38.90;;;;;;5045373;28;19984;-88
2023/07/17 10:58:48;;;;;;;;;;;30.90;40.50;;;;;;5059784;28;19913;-86
2023/07/17 11:01:15;;;;;;;;;;;30.30;40.20;;;;;;5041887;28;19924;-91
2023/07/17 11:03:43;;;;;;;;;;;30.10;40.60;;;;;;5040987;28;19913;-86
2023/07/17 11:06:09;;;;;;;;;;;;;;;;;;5041229;28;19916;-88
2023/07/17 11:08:38;;;;;;;;;;;;;;;;;;5051682;28;20363;-90
2023/07/17 11:11:04;;;;;;;;;;;;;;;;;;5063421;28;19912;-88
2023/07/17 11:13:31;;;;;;;;;;;29.90;40.70;;;;;;5030566;28;19955;-87
2023/07/17 11:16:04;;;;;;;;;;;29.50;42.40;;;;;;5047411;28;19909;-87
2023/07/17 11:18:30;;;;;;;;;;;29.40;42.80;;;;;;5059417;28;19909;-86
2023/07/17 11:20:56;;;;;;;;;;;29.30;42.70;;;;;;5046441;28;20274;-87
2023/07/17 11:23:22;;;;;;;;;;;28.90;43.40;;;;;;5046596;28;19935;-88
2023/07/17 11:25:48;;;;;;;;;;;28.50;43.60;;;;;;5043127;28;19908;-89
2023/07/17 11:28:14;;;;;;;;;;;28.20;44.10;;;;;;5050468;28;19915;-89
2023/07/17 11:30:39;;;;;;;;;;;28.10;44.60;;;;;;5051960;28;19949;-87
2023/07/17 11:33:14;;;;;;;;;;;28.00;44.70;;;;;;5050739;28;19913;-87
2023/07/17 11:35:40;;;;;;;;;;;28.00;45.40;;;;;;5050511;28;19995;-87
2023/07/17 11:38:06;;;;;;;;;;;28.10;45.10;;;;;;5071736;28;19913;-90
2023/07/17 11:40:32;;;;;;;;;;;28.10;45.10;;;;;;5054347;28;19940;-90
2023/07/17 11:43:03;;;;;;;;;;;28.10;45.20;;;;;;5055409;28;19913;-89
2023/07/17 11:45:29;;;;;;;;;;;28.10;44.90;;;;;;5045895;28;19948;-90
2023/07/17 11:47:58;;;;;;;;;;;28.00;44.60;;;;;;5034349;28;19941;-87
2023/07/17 11:50:25;;;;;;;;;;;27.90;45.00;;;;;;5043830;28;19913;-85
2023/07/17 11:53:23;;;;;;;;;;;27.90;45.00;;;;;;5063694;28;19909;-85
2023/07/17 11:55:50;;;;;;;;;;;27.90;45.00;;;;;;5004667;28;19917;-86
2023/07/17 11:58:16;;;;;;;;;;;27.90;45.00;;;;;;5054760;28;19916;-87
2023/07/17 12:00:42;;;;;;;;;;;27.90;45.10;;;;;;5057249;28;20293;-86
2023/07/17 12:03:08;;;;;;;;;;;27.90;45.10;;;;;;5064228;28;19909;-86
2023/07/17 12:05:35;;;;;;;;;;;27.80;45.10;;;;;;5063780;28;20334;-87
2023/07/17 12:08:00;;;;;;;;;;;27.80;45.20;;;;;;5043811;28;19915;-91
2023/07/17 12:10:26;;;;;;;;;;;27.80;45.20;;;;;;5035531;28;19909;-85
2023/07/17 12:12:52;;;;;;;;;;;27.80;45.00;;;;;;5039631;28;19916;-88
2023/07/17 12:15:18;;;;;;;;;;;27.80;44.80;;;;;;5033105;28;19946;-89
2023/07/17 12:17:44;;;;;;;;;;;27.70;44.90;;;;;;5017145;28;20048;-90
2023/07/17 12:20:10;;;;;;;;;;;27.70;44.60;;;;;;5033270;28;19921;-87
2023/07/17 12:22:36;;;;;;;;;;;27.70;44.00;;;;;;5024174;28;19920;-85
2023/07/17 12:25:01;;;;;;;;;;;27.70;43.80;;;;;;5043386;28;20003;-86
2023/07/17 12:27:27;;;;;;;;;;;27.70;43.90;;;;;;5027576;28;19909;-87
2023/07/17 12:29:53;;;;;;;;;;;27.80;43.70;;;;;;5038317;28;19931;-88
2023/07/17 12:32:19;;;;;;;;;;;27.80;43.80;;;;;;5025022;28;19992;-90
2023/07/17 12:34:46;;;;;;;;;;;27.90;43.70;;;;;;5021624;28;20007;-89
2023/07/17 12:37:12;;;;;;;;;;;27.90;43.50;;;;;;5019983;28;19920;-87
2023/07/17 12:40:02;;;;;;;;;;;27.90;43.50;;;;;;5025552;28;20023;-87
2023/07/17 12:42:34;;;;;;;;;;;27.90;43.40;;;;;;5054480;28;19916;-86
2023/07/17 12:45:00;;;;;;;;;;;27.90;44.40;;;;;;5051219;28;19948;-87
2023/07/17 12:47:26;;;;;;;;;;;27.90;44.50;;;;;;5049284;28;19921;-85
2023/07/17 12:49:52;;;;;;;;;;;27.90;44.60;;;;;;5061597;28;19913;-92
2023/07/17 12:52:28;;;;;;;;;;;27.90;44.40;;;;;;5051124;28;20382;-89
2023/07/17 12:54:57;;;;;;;;;;;27.90;45.00;;;;;;5048302;28;19909;-92
2023/07/17 12:57:33;;;;;;;;;;;27.80;44.40;;;;;;5051917;28;19924;-91
2023/07/17 13:00:02;;;;;;;;;;;27.70;44.30;;;;;;5049811;28;19972;-89
2023/07/17 13:02:27;;;;;;;;;;;27.70;44.50;;;;;;5048837;28;19909;-89
2023/07/17 13:04:53;;;;;;;;;;;27.70;44.30;;;;;;5035640;28;19913;-88
2023/07/17 13:07:19;;;;;;;;;;;27.80;44.40;;;;;;5030417;28;19920;-85
2023/07/17 13:09:45;;;;;;;;;;;27.90;44.50;;;;;;5058945;28;19987;-87
2023/07/17 13:12:10;;;;;;;;;;;27.90;44.40;;;;;;5060284;28;19909;-87
2023/07/17 13:14:36;;;;;;;;;;;28.00;44.50;;;;;;5056127;28;19909;-90
2023/07/17 13:17:02;;;;;;;;;;;28.00;44.70;;;;;;5048468;28;19956;-89
2023/07/17 13:19:30;;;;;;;;;;;28.10;44.90;;;;;;5053536;28;19917;-92
2023/07/17 13:22:00;;;;;;;;;;;28.00;44.80;;;;;;5046144;28;19920;-94
2023/07/17 13:24:26;;;;;;;;;;;27.90;44.60;;;;;;5070836;28;19910;-93
2023/07/17 13:26:54;;;;;;;;;;;27.90;44.90;;;;;;5074511;28;19908;-88
2023/07/17 13:29:22;;;;;;;;;;;28.00;45.30;;;;;;5053682;28;19909;-88
2023/07/17 13:31:48;;;;;;;;;;;28.00;45.00;;;;;;5052157;28;19923;-90
2023/07/17 13:34:14;;;;;;;;;;;28.00;45.00;;;;;;5053345;28;19909;-90
2023/07/17 13:36:41;;;;;;;;;;;27.90;44.90;;;;;;5053732;28;19909;-91
2023/07/17 13:39:07;;;;;;;;;;;27.80;45.10;;;;;;5057171;28;19909;-88
2023/07/17 13:41:41;;;;;;;;;;;27.80;45.40;;;;;;5053650;28;19970;-90
2023/07/17 13:44:06;;;;;;;;;;;28.30;45.60;;;;;;5055717;28;19917;-88
2023/07/17 13:46:35;;;;;;;;;;;29.00;45.40;;;;;;5056755;28;19913;-89
2023/07/17 13:49:01;;;;;;;;;;;30.30;44.80;;;;;;5064417;28;19914;-86
2023/07/17 13:51:30;;;;;;;;;;;31.60;44.20;;;;;;5068944;28;19976;-90
2023/07/17 13:53:56;;;;;;;;;;;32.60;42.80;;;;;;5051222;28;19940;-89
2023/07/17 13:56:21;;;;;;;;;;;33.30;41.60;;;;;;5075439;28;19947;-87
2023/07/17 13:58:53;;;;;;;;;;;33.80;41.20;;;;;;5056914;28;19971;-88
2023/07/17 14:01:18;;;;;;;;;;;34.10;40.90;;;;;;5048739;28;19936;-89
2023/07/17 14:03:44;;;;;;;;;;;34.50;40.70;;;;;;5042123;28;19901;-89
2023/07/17 14:06:10;;;;;;;;;;;34.90;39.90;;;;;;5056187;28;19917;-89
2023/07/17 14:08:36;;;;;;;;;;;35.10;39.80;;;;;;5067603;28;20382;-87
2023/07/17 14:11:02;;;;;;;;;;;35.30;39.30;;;;;;5046515;28;19913;-85
2023/07/17 14:13:28;;;;;;;;;;;34.40;39.00;;;;;;5076677;28;19984;-86
2023/07/17 14:15:54;;;;;;;;;;;34.00;39.50;;;;;;5077376;28;19952;-90
2023/07/17 14:18:20;;;;;;;;;;;34.20;39.40;;;;;;5078798;28;19901;-88
2023/07/17 14:20:46;;;;;;;;;;;34.20;38.70;;;;;;5060136;28;19931;-94
2023/07/17 14:23:11;;;;;;;;;;;34.20;38.80;;;;;;5047098;28;19948;-85
2023/07/17 14:25:37;;;;;;;;;;;34.30;38.40;;;;;;5053639;28;19909;-84
2023/07/17 14:28:04;;;;;;;;;;;34.30;38.30;;;;;;5055882;28;20369;-87
2023/07/17 14:30:30;;;;;;;;;;;34.20;38.30;;;;;;5055527;28;19909;-88
2023/07/17 14:32:59;;;;;;;;;;;34.20;38.70;;;;;;5056212;28;19917;-84
2023/07/17 14:35:26;;;;;;;;;;;34.30;38.80;;;;;;5047514;28;19940;-87